sensor_id;sensor_type;location;lat;lon;timestamp;temperature;humidity
8172;DHT22;4127;47.908;10.850;2022-08-19T00:01:55;16.60;99.90
8172;DHT22;4127;47.908;10.850;2022-08-19T00:04:25;16.60;99.90
8172;DHT22;4127;47.908;10.850;2022-08-19T00:06:53;16.60;99.90
8172;DHT22;4127;47.908;10.850;2022-08-19T00:09:21;16.60;99.90
8172;DHT22;4127;47.908;10.850;2022-08-19T00:11:48;16.50;99.90
8172;DHT22;4127;47.908;10.850;2022-08-19T00:14:16;16.50;99.90
8172;DHT22;4127;47.908;10.850;2022-08-19T00:16:45;16.50;99.90
8172;DHT22;4127;47.908;10.850;2022-08-19T00:19:15;16.50;99.90
8172;DHT22;4127;47.908;10.850;2022-08-19T00:21:42;16.50;99.90
8172;DHT22;4127;47.908;10.850;2022-08-19T00:24:11;16.40;99.90
8172;DHT22;4127;47.908;10.850;2022-08-19T00:26:39;16.40;99.90
8172;DHT22;4127;47.908;10.850;2022-08-19T00:29:09;16.40;99.90
8172;DHT22;4127;47.908;10.850;2022-08-19T00:31:36;16.50;99.90
8172;DHT22;4127;47.908;10.850;2022-08-19T00:34:03;16.40;99.90
8172;DHT22;4127;47.908;10.850;2022-08-19T00:36:30;16.40;99.90
8172;DHT22;4127;47.908;10.850;2022-08-19T00:38:59;16.40;99.90
8172;DHT22;4127;47.908;10.850;2022-08-19T00:41:26;16.40;99.90
8172;DHT22;4127;47.908;10.850;2022-08-19T00:44:17;16.30;99.90
8172;DHT22;4127;47.908;10.850;2022-08-19T00:46:50;16.30;99.90
8172;DHT22;4127;47.908;10.850;2022-08-19T00:49:25;16.30;99.90
8172;DHT22;4127;47.908;10.850;2022-08-19T00:52:00;16.30;99.90
8172;DHT22;4127;47.908;10.850;2022-08-19T00:54:28;16.30;99.90
8172;DHT22;4127;47.908;10.850;2022-08-19T00:56:58;16.30;99.90
8172;DHT22;4127;47.908;10.850;2022-08-19T00:59:27;16.30;99.90
8172;DHT22;4127;47.908;10.850;2022-08-19T01:02:15;16.30;99.90
8172;DHT22;4127;47.908;10.850;2022-08-19T01:04:43;16.30;99.90
8172;DHT22;4127;47.908;10.850;2022-08-19T01:07:09;16.30;99.90
8172;DHT22;4127;47.908;10.850;2022-08-19T01:09:45;16.30;99.90
8172;DHT22;4127;47.908;10.850;2022-08-19T01:12:12;16.40;99.90
8172;DHT22;4127;47.908;10.850;2022-08-19T01:14:39;16.40;99.90
8172;DHT22;4127;47.908;10.850;2022-08-19T01:17:10;16.40;99.90
8172;DHT22;4127;47.908;10.850;2022-08-19T01:19:41;16.50;99.90
8172;DHT22;4127;47.908;10.850;2022-08-19T01:22:25;16.50;99.90
8172;DHT22;4127;47.908;10.850;2022-08-19T01:24:59;16.40;99.90
8172;DHT22;4127;47.908;10.850;2022-08-19T01:27:26;16.50;99.90
8172;DHT22;4127;47.908;10.850;2022-08-19T01:30:00;16.50;99.90
8172;DHT22;4127;47.908;10.850;2022-08-19T01:32:27;16.50;99.90
8172;DHT22;4127;47.908;10.850;2022-08-19T01:34:59;16.40;99.90
8172;DHT22;4127;47.908;10.850;2022-08-19T01:37:29;16.40;99.90
8172;DHT22;4127;47.908;10.850;2022-08-19T01:39:57;16.50;99.90
8172;DHT22;4127;47.908;10.850;2022-08-19T01:42:24;16.50;99.90
8172;DHT22;4127;47.908;10.850;2022-08-19T01:44:56;16.50;99.90
8172;DHT22;4127;47.908;10.850;2022-08-19T01:47:23;16.50;99.90
8172;DHT22;4127;47.908;10.850;2022-08-19T01:49:51;16.50;99.90
8172;DHT22;4127;47.908;10.850;2022-08-19T01:52:17;16.50;99.90
8172;DHT22;4127;47.908;10.850;2022-08-19T01:54:44;16.50;99.90
8172;DHT22;4127;47.908;10.850;2022-08-19T01:57:12;16.50;99.90
8172;DHT22;4127;47.908;10.850;2022-08-19T01:59:41;16.50;99.90
8172;DHT22;4127;47.908;10.850;2022-08-19T02:02:09;16.50;99.90
8172;DHT22;4127;47.908;10.850;2022-08-19T02:04:37;16.50;99.90
8172;DHT22;4127;47.908;10.850;2022-08-19T02:07:07;16.50;99.90
8172;DHT22;4127;47.908;10.850;2022-08-19T02:09:35;16.60;99.90
8172;DHT22;4127;47.908;10.850;2022-08-19T02:12:03;16.60;99.90
8172;DHT22;4127;47.908;10.850;2022-08-19T02:14:29;16.60;99.90
8172;DHT22;4127;47.908;10.850;2022-08-19T02:16:56;16.60;99.90
8172;DHT22;4127;47.908;10.850;2022-08-19T02:19:23;16.60;99.90
8172;DHT22;4127;47.908;10.850;2022-08-19T02:21:50;16.60;99.90
8172;DHT22;4127;47.908;10.850;2022-08-19T02:24:17;16.60;99.90
8172;DHT22;4127;47.908;10.850;2022-08-19T02:26:44;16.50;99.90
8172;DHT22;4127;47.908;10.850;2022-08-19T02:29:10;16.50;99.90
8172;DHT22;4127;47.908;10.850;2022-08-19T02:31:37;16.60;99.90
8172;DHT22;4127;47.908;10.850;2022-08-19T02:34:04;16.60;99.90
8172;DHT22;4127;47.908;10.850;2022-08-19T02:36:31;16.60;99.90
8172;DHT22;4127;47.908;10.850;2022-08-19T02:38:58;16.60;99.90
8172;DHT22;4127;47.908;10.850;2022-08-19T02:41:28;16.60;99.90
8172;DHT22;4127;47.908;10.850;2022-08-19T02:43:57;16.60;99.90
8172;DHT22;4127;47.908;10.850;2022-08-19T02:46:48;16.70;99.90
8172;DHT22;4127;47.908;10.850;2022-08-19T02:49:18;16.70;99.90
8172;DHT22;4127;47.908;10.850;2022-08-19T02:51:45;16.70;99.90
8172;DHT22;4127;47.908;10.850;2022-08-19T02:54:13;16.70;99.90
8172;DHT22;4127;47.908;10.850;2022-08-19T02:56:41;16.60;99.90
8172;DHT22;4127;47.908;10.850;2022-08-19T02:59:09;16.60;99.90
8172;DHT22;4127;47.908;10.850;2022-08-19T03:01:38;16.60;99.90
8172;DHT22;4127;47.908;10.850;2022-08-19T03:04:06;16.60;99.90
8172;DHT22;4127;47.908;10.850;2022-08-19T03:06:38;16.60;99.90
8172;DHT22;4127;47.908;10.850;2022-08-19T03:09:06;16.60;99.90
8172;DHT22;4127;47.908;10.850;2022-08-19T03:11:33;16.50;99.90
8172;DHT22;4127;47.908;10.850;2022-08-19T03:14:02;16.50;99.90
8172;DHT22;4127;47.908;10.850;2022-08-19T03:16:30;16.40;99.90
8172;DHT22;4127;47.908;10.850;2022-08-19T03:19:00;16.40;99.90
8172;DHT22;4127;47.908;10.850;2022-08-19T03:21:30;16.40;99.90
8172;DHT22;4127;47.908;10.850;2022-08-19T03:24:00;16.30;99.90
8172;DHT22;4127;47.908;10.850;2022-08-19T03:26:27;16.30;99.90
8172;DHT22;4127;47.908;10.850;2022-08-19T03:28:55;16.30;99.90
8172;DHT22;4127;47.908;10.850;2022-08-19T03:31:26;16.30;99.90
8172;DHT22;4127;47.908;10.850;2022-08-19T03:34:24;16.30;99.90
8172;DHT22;4127;47.908;10.850;2022-08-19T03:36:55;16.30;99.90
8172;DHT22;4127;47.908;10.850;2022-08-19T03:39:24;16.30;99.90
8172;DHT22;4127;47.908;10.850;2022-08-19T03:41:53;16.30;99.90
8172;DHT22;4127;47.908;10.850;2022-08-19T03:44:43;16.30;99.90
8172;DHT22;4127;47.908;10.850;2022-08-19T03:47:11;16.30;99.90
8172;DHT22;4127;47.908;10.850;2022-08-19T03:49:43;16.20;99.90
8172;DHT22;4127;47.908;10.850;2022-08-19T03:52:10;16.20;99.90
8172;DHT22;4127;47.908;10.850;2022-08-19T03:54:38;16.10;99.90
8172;DHT22;4127;47.908;10.850;2022-08-19T03:57:06;16.10;99.90
8172;DHT22;4127;47.908;10.850;2022-08-19T03:59:35;16.10;99.90
8172;DHT22;4127;47.908;10.850;2022-08-19T04:02:07;16.10;99.90
8172;DHT22;4127;47.908;10.850;2022-08-19T04:04:38;16.10;99.90
8172;DHT22;4127;47.908;10.850;2022-08-19T04:07:05;16.10;99.90
8172;DHT22;4127;47.908;10.850;2022-08-19T04:09:34;16.10;99.90
8172;DHT22;4127;47.908;10.850;2022-08-19T04:12:04;16.20;99.90
8172;DHT22;4127;47.908;10.850;2022-08-19T04:14:34;16.30;99.90
8172;DHT22;4127;47.908;10.850;2022-08-19T04:17:02;16.30;99.90
8172;DHT22;4127;47.908;10.850;2022-08-19T04:19:33;16.40;99.90
8172;DHT22;4127;47.908;10.850;2022-08-19T04:22:00;16.40;99.90
8172;DHT22;4127;47.908;10.850;2022-08-19T04:24:27;16.40;99.90
8172;DHT22;4127;47.908;10.850;2022-08-19T04:26:54;16.50;99.90
8172;DHT22;4127;47.908;10.850;2022-08-19T04:29:24;16.60;99.90
8172;DHT22;4127;47.908;10.850;2022-08-19T04:31:53;16.50;99.90
8172;DHT22;4127;47.908;10.850;2022-08-19T04:34:21;16.60;99.90
8172;DHT22;4127;47.908;10.850;2022-08-19T04:36:51;16.60;99.90
8172;DHT22;4127;47.908;10.850;2022-08-19T04:39:27;16.70;99.90
8172;DHT22;4127;47.908;10.850;2022-08-19T04:42:16;16.70;99.90
8172;DHT22;4127;47.908;10.850;2022-08-19T04:45:04;16.70;99.90
8172;DHT22;4127;47.908;10.850;2022-08-19T04:47:35;16.70;99.90
8172;DHT22;4127;47.908;10.850;2022-08-19T04:50:23;16.70;99.90
8172;DHT22;4127;47.908;10.850;2022-08-19T04:52:51;16.70;99.90
8172;DHT22;4127;47.908;10.850;2022-08-19T04:55:18;16.70;99.90
8172;DHT22;4127;47.908;10.850;2022-08-19T04:57:45;16.70;99.90
8172;DHT22;4127;47.908;10.850;2022-08-19T05:00:12;16.80;99.90
8172;DHT22;4127;47.908;10.850;2022-08-19T05:02:39;16.80;99.90
8172;DHT22;4127;47.908;10.850;2022-08-19T05:05:06;16.80;99.90
8172;DHT22;4127;47.908;10.850;2022-08-19T05:07:33;16.90;99.90
8172;DHT22;4127;47.908;10.850;2022-08-19T05:10:01;16.90;99.90
8172;DHT22;4127;47.908;10.850;2022-08-19T05:12:28;16.90;99.90
8172;DHT22;4127;47.908;10.850;2022-08-19T05:14:56;17.00;99.90
8172;DHT22;4127;47.908;10.850;2022-08-19T05:17:25;17.00;99.90
8172;DHT22;4127;47.908;10.850;2022-08-19T05:19:55;16.90;99.90
8172;DHT22;4127;47.908;10.850;2022-08-19T05:22:42;16.90;99.90
8172;DHT22;4127;47.908;10.850;2022-08-19T05:25:12;16.80;99.90
8172;DHT22;4127;47.908;10.850;2022-08-19T05:27:41;16.90;99.90
8172;DHT22;4127;47.908;10.850;2022-08-19T05:30:10;16.90;99.90
8172;DHT22;4127;47.908;10.850;2022-08-19T05:32:38;16.90;99.90
8172;DHT22;4127;47.908;10.850;2022-08-19T05:35:05;16.90;99.90
8172;DHT22;4127;47.908;10.850;2022-08-19T05:37:32;16.90;99.90
8172;DHT22;4127;47.908;10.850;2022-08-19T05:39:59;16.90;99.90
8172;DHT22;4127;47.908;10.850;2022-08-19T05:42:26;17.00;99.90
8172;DHT22;4127;47.908;10.850;2022-08-19T05:44:53;17.00;99.90
8172;DHT22;4127;47.908;10.850;2022-08-19T05:47:20;17.00;99.90
8172;DHT22;4127;47.908;10.850;2022-08-19T05:49:48;17.00;99.90
8172;DHT22;4127;47.908;10.850;2022-08-19T05:52:17;17.10;99.90
8172;DHT22;4127;47.908;10.850;2022-08-19T05:54:46;17.10;99.90
8172;DHT22;4127;47.908;10.850;2022-08-19T05:57:18;17.00;99.90
8172;DHT22;4127;47.908;10.850;2022-08-19T05:59:45;17.00;99.90
8172;DHT22;4127;47.908;10.850;2022-08-19T06:02:18;17.00;99.90
8172;DHT22;4127;47.908;10.850;2022-08-19T06:04:45;17.00;99.90
8172;DHT22;4127;47.908;10.850;2022-08-19T06:07:12;17.10;99.90
8172;DHT22;4127;47.908;10.850;2022-08-19T06:09:40;17.00;99.90
8172;DHT22;4127;47.908;10.850;2022-08-19T06:12:24;17.00;99.90
8172;DHT22;4127;47.908;10.850;2022-08-19T06:14:55;17.00;99.90
8172;DHT22;4127;47.908;10.850;2022-08-19T06:17:28;17.00;99.90
8172;DHT22;4127;47.908;10.850;2022-08-19T06:19:57;17.00;99.90
8172;DHT22;4127;47.908;10.850;2022-08-19T06:22:25;17.10;99.90
8172;DHT22;4127;47.908;10.850;2022-08-19T06:24:53;17.10;99.90
8172;DHT22;4127;47.908;10.850;2022-08-19T06:27:21;17.10;99.90
8172;DHT22;4127;47.908;10.850;2022-08-19T06:29:48;17.10;99.90
8172;DHT22;4127;47.908;10.850;2022-08-19T06:32:16;17.10;99.90
8172;DHT22;4127;47.908;10.850;2022-08-19T06:34:43;17.20;99.90
8172;DHT22;4127;47.908;10.850;2022-08-19T06:37:11;17.20;99.90
8172;DHT22;4127;47.908;10.850;2022-08-19T06:39:40;17.30;99.90
8172;DHT22;4127;47.908;10.850;2022-08-19T06:42:07;17.30;99.90
8172;DHT22;4127;47.908;10.850;2022-08-19T06:44:41;17.20;99.90
8172;DHT22;4127;47.908;10.850;2022-08-19T06:47:17;17.20;99.90
8172;DHT22;4127;47.908;10.850;2022-08-19T06:49:52;17.20;99.90
8172;DHT22;4127;47.908;10.850;2022-08-19T06:52:19;17.30;99.90
8172;DHT22;4127;47.908;10.850;2022-08-19T06:54:46;17.30;99.90
8172;DHT22;4127;47.908;10.850;2022-08-19T06:57:23;17.30;99.90
8172;DHT22;4127;47.908;10.850;2022-08-19T06:59:51;17.30;99.90
8172;DHT22;4127;47.908;10.850;2022-08-19T07:02:18;17.20;99.90
8172;DHT22;4127;47.908;10.850;2022-08-19T07:04:47;17.10;99.90
8172;DHT22;4127;47.908;10.850;2022-08-19T07:07:19;17.20;99.90
8172;DHT22;4127;47.908;10.850;2022-08-19T07:09:48;17.30;99.90
8172;DHT22;4127;47.908;10.850;2022-08-19T07:12:27;17.30;99.90
8172;DHT22;4127;47.908;10.850;2022-08-19T07:14:57;17.40;99.90
8172;DHT22;4127;47.908;10.850;2022-08-19T07:17:24;17.40;99.90
8172;DHT22;4127;47.908;10.850;2022-08-19T07:19:51;17.30;99.90
8172;DHT22;4127;47.908;10.850;2022-08-19T07:22:21;17.30;99.90
8172;DHT22;4127;47.908;10.850;2022-08-19T07:24:50;17.40;99.90
8172;DHT22;4127;47.908;10.850;2022-08-19T07:27:18;17.40;99.90
8172;DHT22;4127;47.908;10.850;2022-08-19T07:29:52;17.40;99.90
8172;DHT22;4127;47.908;10.850;2022-08-19T07:32:25;17.40;99.90
8172;DHT22;4127;47.908;10.850;2022-08-19T07:34:54;17.40;99.90
8172;DHT22;4127;47.908;10.850;2022-08-19T07:37:22;17.50;99.90
8172;DHT22;4127;47.908;10.850;2022-08-19T07:39:49;17.40;99.90
8172;DHT22;4127;47.908;10.850;2022-08-19T07:42:16;17.50;99.90
8172;DHT22;4127;47.908;10.850;2022-08-19T07:44:43;17.50;99.90
8172;DHT22;4127;47.908;10.850;2022-08-19T07:47:17;17.50;99.90
8172;DHT22;4127;47.908;10.850;2022-08-19T07:50:07;17.50;99.90
8172;DHT22;4127;47.908;10.850;2022-08-19T07:52:34;17.50;99.90
8172;DHT22;4127;47.908;10.850;2022-08-19T07:55:04;17.50;99.90
8172;DHT22;4127;47.908;10.850;2022-08-19T07:57:31;17.40;99.90
8172;DHT22;4127;47.908;10.850;2022-08-19T07:59:58;17.40;99.90
8172;DHT22;4127;47.908;10.850;2022-08-19T08:02:25;17.40;99.90
8172;DHT22;4127;47.908;10.850;2022-08-19T08:04:52;17.40;99.90
8172;DHT22;4127;47.908;10.850;2022-08-19T08:07:38;17.40;99.90
8172;DHT22;4127;47.908;10.850;2022-08-19T08:10:24;17.40;99.90
8172;DHT22;4127;47.908;10.850;2022-08-19T08:12:52;17.40;99.90
8172;DHT22;4127;47.908;10.850;2022-08-19T08:15:36;17.30;99.90
8172;DHT22;4127;47.908;10.850;2022-08-19T08:18:09;17.40;99.90
8172;DHT22;4127;47.908;10.850;2022-08-19T08:20:36;17.40;99.90
8172;DHT22;4127;47.908;10.850;2022-08-19T08:23:03;17.40;99.90
8172;DHT22;4127;47.908;10.850;2022-08-19T08:25:49;17.40;99.90
8172;DHT22;4127;47.908;10.850;2022-08-19T08:28:16;17.50;99.90
8172;DHT22;4127;47.908;10.850;2022-08-19T08:30:44;17.50;99.90
8172;DHT22;4127;47.908;10.850;2022-08-19T08:33:14;17.50;99.90
8172;DHT22;4127;47.908;10.850;2022-08-19T08:35:41;17.50;99.90
8172;DHT22;4127;47.908;10.850;2022-08-19T08:38:08;17.50;99.90
8172;DHT22;4127;47.908;10.850;2022-08-19T08:40:45;17.60;99.90
8172;DHT22;4127;47.908;10.850;2022-08-19T08:46:18;17.70;99.90
8172;DHT22;4127;47.908;10.850;2022-08-19T08:52:04;17.60;99.90
8172;DHT22;4127;47.908;10.850;2022-08-19T08:54:39;17.60;99.90
8172;DHT22;4127;47.908;10.850;2022-08-19T08:58:00;17.60;99.90
8172;DHT22;4127;47.908;10.850;2022-08-19T09:00:36;17.70;99.90
8172;DHT22;4127;47.908;10.850;2022-08-19T09:03:05;17.70;99.90
8172;DHT22;4127;47.908;10.850;2022-08-19T09:06:03;17.60;99.90
8172;DHT22;4127;47.908;10.850;2022-08-19T09:11:33;17.60;99.90
8172;DHT22;4127;47.908;10.850;2022-08-19T09:14:32;17.60;99.90
8172;DHT22;4127;47.908;10.850;2022-08-19T09:17:27;17.60;99.90
8172;DHT22;4127;47.908;10.850;2022-08-19T09:20:03;17.70;99.90
8172;DHT22;4127;47.908;10.850;2022-08-19T09:22:38;17.60;99.90
8172;DHT22;4127;47.908;10.850;2022-08-19T09:25:08;17.50;99.90
8172;DHT22;4127;47.908;10.850;2022-08-19T09:27:37;17.50;99.90
8172;DHT22;4127;47.908;10.850;2022-08-19T09:30:20;17.40;99.90
8172;DHT22;4127;47.908;10.850;2022-08-19T09:32:48;17.30;99.90
8172;DHT22;4127;47.908;10.850;2022-08-19T09:35:23;17.30;99.90
8172;DHT22;4127;47.908;10.850;2022-08-19T09:37:51;17.30;99.90
8172;DHT22;4127;47.908;10.850;2022-08-19T09:40:28;17.20;99.90
8172;DHT22;4127;47.908;10.850;2022-08-19T09:42:59;17.30;99.90
8172;DHT22;4127;47.908;10.850;2022-08-19T09:45:38;17.30;99.90
8172;DHT22;4127;47.908;10.850;2022-08-19T09:48:05;17.30;99.90
8172;DHT22;4127;47.908;10.850;2022-08-19T09:50:32;17.30;99.90
8172;DHT22;4127;47.908;10.850;2022-08-19T09:53:01;17.30;99.90
8172;DHT22;4127;47.908;10.850;2022-08-19T09:55:28;17.40;99.90
8172;DHT22;4127;47.908;10.850;2022-08-19T09:57:58;17.40;99.90
8172;DHT22;4127;47.908;10.850;2022-08-19T10:00:25;17.30;99.90
8172;DHT22;4127;47.908;10.850;2022-08-19T10:02:53;17.30;99.90
8172;DHT22;4127;47.908;10.850;2022-08-19T10:05:19;17.40;99.90
8172;DHT22;4127;47.908;10.850;2022-08-19T10:08:08;17.50;99.90
8172;DHT22;4127;47.908;10.850;2022-08-19T10:10:43;17.50;99.90
8172;DHT22;4127;47.908;10.850;2022-08-19T10:13:15;17.50;99.90
8172;DHT22;4127;47.908;10.850;2022-08-19T10:15:43;17.50;99.90
8172;DHT22;4127;47.908;10.850;2022-08-19T10:18:15;17.40;99.90
8172;DHT22;4127;47.908;10.850;2022-08-19T10:20:46;17.40;99.90
8172;DHT22;4127;47.908;10.850;2022-08-19T10:23:19;17.50;99.90
8172;DHT22;4127;47.908;10.850;2022-08-19T10:25:48;17.50;99.90
8172;DHT22;4127;47.908;10.850;2022-08-19T10:28:16;17.50;99.90
8172;DHT22;4127;47.908;10.850;2022-08-19T10:30:45;17.50;99.90
8172;DHT22;4127;47.908;10.850;2022-08-19T10:33:12;17.40;99.90
8172;DHT22;4127;47.908;10.850;2022-08-19T10:35:40;17.40;99.90
8172;DHT22;4127;47.908;10.850;2022-08-19T10:38:23;17.40;99.90
8172;DHT22;4127;47.908;10.850;2022-08-19T10:40:58;17.40;99.90
8172;DHT22;4127;47.908;10.850;2022-08-19T10:43:32;17.30;99.90
8172;DHT22;4127;47.908;10.850;2022-08-19T10:46:02;17.30;99.90
8172;DHT22;4127;47.908;10.850;2022-08-19T10:48:35;17.30;99.90
8172;DHT22;4127;47.908;10.850;2022-08-19T10:51:03;17.40;99.90
8172;DHT22;4127;47.908;10.850;2022-08-19T10:53:50;17.40;99.90
8172;DHT22;4127;47.908;10.850;2022-08-19T10:56:18;17.50;99.90
8172;DHT22;4127;47.908;10.850;2022-08-19T10:59:04;17.60;99.90
8172;DHT22;4127;47.908;10.850;2022-08-19T11:01:32;17.70;99.90
8172;DHT22;4127;47.908;10.850;2022-08-19T11:04:02;17.80;99.90
8172;DHT22;4127;47.908;10.850;2022-08-19T11:06:31;17.80;99.90
8172;DHT22;4127;47.908;10.850;2022-08-19T11:08:58;17.90;99.90
8172;DHT22;4127;47.908;10.850;2022-08-19T11:11:26;18.00;99.90
8172;DHT22;4127;47.908;10.850;2022-08-19T11:13:54;18.00;99.90
8172;DHT22;4127;47.908;10.850;2022-08-19T11:16:24;18.10;99.90
8172;DHT22;4127;47.908;10.850;2022-08-19T11:18:56;18.00;99.90
8172;DHT22;4127;47.908;10.850;2022-08-19T11:21:27;18.20;99.90
8172;DHT22;4127;47.908;10.850;2022-08-19T11:23:56;18.20;99.90
8172;DHT22;4127;47.908;10.850;2022-08-19T11:26:24;18.10;99.90
8172;DHT22;4127;47.908;10.850;2022-08-19T11:28:51;18.00;99.90
8172;DHT22;4127;47.908;10.850;2022-08-19T11:31:23;17.70;99.90
8172;DHT22;4127;47.908;10.850;2022-08-19T11:33:57;17.70;99.90
8172;DHT22;4127;47.908;10.850;2022-08-19T11:36:24;17.40;99.90
8172;DHT22;4127;47.908;10.850;2022-08-19T11:38:50;17.40;99.90
8172;DHT22;4127;47.908;10.850;2022-08-19T11:41:20;17.50;99.90
8172;DHT22;4127;47.908;10.850;2022-08-19T11:43:53;17.60;99.90
8172;DHT22;4127;47.908;10.850;2022-08-19T11:46:23;17.50;99.90
8172;DHT22;4127;47.908;10.850;2022-08-19T11:48:51;17.50;99.90
8172;DHT22;4127;47.908;10.850;2022-08-19T11:51:20;17.60;99.90
8172;DHT22;4127;47.908;10.850;2022-08-19T11:53:48;17.60;99.90
8172;DHT22;4127;47.908;10.850;2022-08-19T11:56:18;17.50;99.90
8172;DHT22;4127;47.908;10.850;2022-08-19T11:58:45;17.50;99.90
8172;DHT22;4127;47.908;10.850;2022-08-19T12:01:14;17.40;99.90
8172;DHT22;4127;47.908;10.850;2022-08-19T12:03:43;17.50;99.90
8172;DHT22;4127;47.908;10.850;2022-08-19T12:06:14;17.50;99.90
8172;DHT22;4127;47.908;10.850;2022-08-19T12:08:42;17.50;99.90
8172;DHT22;4127;47.908;10.850;2022-08-19T12:11:11;17.40;99.90
8172;DHT22;4127;47.908;10.850;2022-08-19T12:13:39;17.40;99.90
8172;DHT22;4127;47.908;10.850;2022-08-19T12:16:16;17.30;99.90
8172;DHT22;4127;47.908;10.850;2022-08-19T12:18:44;17.30;99.90
8172;DHT22;4127;47.908;10.850;2022-08-19T12:21:23;17.50;99.90
8172;DHT22;4127;47.908;10.850;2022-08-19T12:23:53;17.50;99.90
8172;DHT22;4127;47.908;10.850;2022-08-19T12:26:22;17.50;99.90
8172;DHT22;4127;47.908;10.850;2022-08-19T12:28:49;17.50;99.90
8172;DHT22;4127;47.908;10.850;2022-08-19T12:31:16;17.70;99.90
8172;DHT22;4127;47.908;10.850;2022-08-19T12:33:43;17.90;99.90
8172;DHT22;4127;47.908;10.850;2022-08-19T12:36:12;17.90;99.90
8172;DHT22;4127;47.908;10.850;2022-08-19T12:38:39;17.80;99.90
8172;DHT22;4127;47.908;10.850;2022-08-19T12:41:09;17.80;99.90
8172;DHT22;4127;47.908;10.850;2022-08-19T12:43:37;17.90;99.90
8172;DHT22;4127;47.908;10.850;2022-08-19T12:46:05;18.10;99.90
8172;DHT22;4127;47.908;10.850;2022-08-19T12:48:35;18.30;99.90
8172;DHT22;4127;47.908;10.850;2022-08-19T12:51:12;18.20;99.90
8172;DHT22;4127;47.908;10.850;2022-08-19T12:53:39;18.40;99.90
8172;DHT22;4127;47.908;10.850;2022-08-19T12:56:08;18.50;99.90
8172;DHT22;4127;47.908;10.850;2022-08-19T12:58:38;18.70;99.90
8172;DHT22;4127;47.908;10.850;2022-08-19T13:01:07;18.80;99.90
8172;DHT22;4127;47.908;10.850;2022-08-19T13:03:34;18.70;99.90
8172;DHT22;4127;47.908;10.850;2022-08-19T13:06:07;18.60;99.90
8172;DHT22;4127;47.908;10.850;2022-08-19T13:08:34;18.50;99.90
8172;DHT22;4127;47.908;10.850;2022-08-19T13:11:15;18.40;99.90
8172;DHT22;4127;47.908;10.850;2022-08-19T13:13:45;18.40;99.90
8172;DHT22;4127;47.908;10.850;2022-08-19T13:16:13;18.50;99.90
8172;DHT22;4127;47.908;10.850;2022-08-19T13:18:41;18.50;99.90
8172;DHT22;4127;47.908;10.850;2022-08-19T13:21:09;18.60;99.90
8172;DHT22;4127;47.908;10.850;2022-08-19T13:23:40;18.50;99.90
8172;DHT22;4127;47.908;10.850;2022-08-19T13:26:08;18.50;99.90
8172;DHT22;4127;47.908;10.850;2022-08-19T13:28:36;18.50;99.90
8172;DHT22;4127;47.908;10.850;2022-08-19T13:31:23;18.50;99.90
8172;DHT22;4127;47.908;10.850;2022-08-19T13:34:09;18.50;99.90
8172;DHT22;4127;47.908;10.850;2022-08-19T13:36:37;18.40;99.90
8172;DHT22;4127;47.908;10.850;2022-08-19T13:39:06;18.30;99.90
8172;DHT22;4127;47.908;10.850;2022-08-19T13:41:34;18.30;99.90
8172;DHT22;4127;47.908;10.850;2022-08-19T13:44:01;18.20;99.90
8172;DHT22;4127;47.908;10.850;2022-08-19T13:46:28;18.20;99.90
8172;DHT22;4127;47.908;10.850;2022-08-19T13:48:55;18.40;99.90
8172;DHT22;4127;47.908;10.850;2022-08-19T13:51:23;18.40;99.90
8172;DHT22;4127;47.908;10.850;2022-08-19T13:53:50;18.60;99.90
8172;DHT22;4127;47.908;10.850;2022-08-19T13:56:18;18.50;99.90
8172;DHT22;4127;47.908;10.850;2022-08-19T13:58:52;18.50;99.90
8172;DHT22;4127;47.908;10.850;2022-08-19T14:01:23;18.60;99.90
8172;DHT22;4127;47.908;10.850;2022-08-19T14:03:50;18.60;99.90
8172;DHT22;4127;47.908;10.850;2022-08-19T14:06:18;18.60;99.90
8172;DHT22;4127;47.908;10.850;2022-08-19T14:08:45;18.70;99.90
8172;DHT22;4127;47.908;10.850;2022-08-19T14:11:12;18.90;99.90
8172;DHT22;4127;47.908;10.850;2022-08-19T14:13:39;18.90;99.90
8172;DHT22;4127;47.908;10.850;2022-08-19T14:16:11;19.00;99.90
8172;DHT22;4127;47.908;10.850;2022-08-19T14:18:39;19.00;99.90
8172;DHT22;4127;47.908;10.850;2022-08-19T14:21:07;19.00;99.90
8172;DHT22;4127;47.908;10.850;2022-08-19T14:23:34;19.00;99.90
8172;DHT22;4127;47.908;10.850;2022-08-19T14:26:08;19.00;99.90
8172;DHT22;4127;47.908;10.850;2022-08-19T14:28:35;19.10;99.90
8172;DHT22;4127;47.908;10.850;2022-08-19T14:31:02;19.10;99.90
8172;DHT22;4127;47.908;10.850;2022-08-19T14:33:29;19.10;99.90
8172;DHT22;4127;47.908;10.850;2022-08-19T14:35:56;19.10;99.90
8172;DHT22;4127;47.908;10.850;2022-08-19T14:38:25;19.00;99.90
8172;DHT22;4127;47.908;10.850;2022-08-19T14:41:15;19.20;99.90
8172;DHT22;4127;47.908;10.850;2022-08-19T14:43:44;19.20;99.90
8172;DHT22;4127;47.908;10.850;2022-08-19T14:46:16;19.20;99.90
8172;DHT22;4127;47.908;10.850;2022-08-19T14:48:46;19.40;99.90
8172;DHT22;4127;47.908;10.850;2022-08-19T14:51:18;19.40;99.90
8172;DHT22;4127;47.908;10.850;2022-08-19T14:53:45;19.30;99.90
8172;DHT22;4127;47.908;10.850;2022-08-19T14:56:17;19.40;99.90
8172;DHT22;4127;47.908;10.850;2022-08-19T14:58:45;19.30;99.90
8172;DHT22;4127;47.908;10.850;2022-08-19T15:01:12;19.20;99.90
8172;DHT22;4127;47.908;10.850;2022-08-19T15:03:40;19.30;99.90
8172;DHT22;4127;47.908;10.850;2022-08-19T15:06:08;19.10;99.90
8172;DHT22;4127;47.908;10.850;2022-08-19T15:08:39;19.00;99.90
8172;DHT22;4127;47.908;10.850;2022-08-19T15:11:09;19.00;99.90
8172;DHT22;4127;47.908;10.850;2022-08-19T15:13:37;18.80;99.90
8172;DHT22;4127;47.908;10.850;2022-08-19T15:16:03;18.80;99.90
8172;DHT22;4127;47.908;10.850;2022-08-19T15:18:31;18.90;99.90
8172;DHT22;4127;47.908;10.850;2022-08-19T15:20:59;18.90;99.90
8172;DHT22;4127;47.908;10.850;2022-08-19T15:23:25;18.90;99.90
8172;DHT22;4127;47.908;10.850;2022-08-19T15:25:53;18.70;99.90
8172;DHT22;4127;47.908;10.850;2022-08-19T15:28:23;18.60;99.90
8172;DHT22;4127;47.908;10.850;2022-08-19T15:30:51;18.60;99.90
8172;DHT22;4127;47.908;10.850;2022-08-19T15:33:18;18.40;99.90
8172;DHT22;4127;47.908;10.850;2022-08-19T15:35:47;18.40;99.90
8172;DHT22;4127;47.908;10.850;2022-08-19T15:38:14;18.40;99.90
8172;DHT22;4127;47.908;10.850;2022-08-19T15:40:41;18.20;99.90
8172;DHT22;4127;47.908;10.850;2022-08-19T15:43:08;18.10;99.90
8172;DHT22;4127;47.908;10.850;2022-08-19T15:45:35;18.20;99.90
8172;DHT22;4127;47.908;10.850;2022-08-19T15:48:03;18.10;99.90
8172;DHT22;4127;47.908;10.850;2022-08-19T15:50:31;18.10;99.90
8172;DHT22;4127;47.908;10.850;2022-08-19T15:53:00;18.10;99.90
8172;DHT22;4127;47.908;10.850;2022-08-19T15:55:30;18.20;99.90
8172;DHT22;4127;47.908;10.850;2022-08-19T15:58:06;18.20;99.90
8172;DHT22;4127;47.908;10.850;2022-08-19T16:00:56;18.10;99.90
8172;DHT22;4127;47.908;10.850;2022-08-19T16:03:43;18.20;99.90
8172;DHT22;4127;47.908;10.850;2022-08-19T16:06:29;18.20;99.90
8172;DHT22;4127;47.908;10.850;2022-08-19T16:08:58;18.00;99.90
8172;DHT22;4127;47.908;10.850;2022-08-19T16:11:29;17.90;99.90
8172;DHT22;4127;47.908;10.850;2022-08-19T16:13:57;17.80;99.90
8172;DHT22;4127;47.908;10.850;2022-08-19T16:16:32;17.90;99.90